Airfield :
LOGIN :

Register | Disclaimer

   EN    FR    IT 

 










Legend :    VFR   Marginal VFR   IFR   Intensive IFR   Very Intensive IFR
Visi :
Ceiling :
>= 8 km
>= 3000ft
5 to 8 km
1000 to 3000 ft
1500m to 5 km
500 to 1000 ft
800 to 1500m
200 to 500 ft
< 800m
< 200 ft
Symbols :   Thunderstorms  Fog  Heavy snow  Heavy precipitations  Wind > 20 kt
SIGMETs :     Misc.  Thunderstorms  Icing  Turbulence  Mountain Waves  Volcanic Ashes







- Airport Elevation : 308 ft
- IATA code : MHG


EDFM - Mannheim-City

CURRENT METAR :
  • 251150Z 33007KT 300V360 9999 OVC030 08/03 Q1010

EXPIRED METARs :
  • 251120Z 33007KT 9999 BKN021 08/03 Q1010
  • 251050Z 01010KT 9999 VCSH BKN019 BKN026CB 08/04 Q1009
  • 251020Z 35010KT 310V010 9999 VCSH FEW020 BKN027CB OVC032 08/04 Q1009
  • 250950Z 35011KT 320V020 9999 VCSH BKN027CB 09/03 Q1009
  • 250920Z 33012KT 280V020 9999 VCSH BKN029TCU 10/04 Q1008

TAF TAF EDFM
Valid from the 25 at 12:00 until the 25 at 21:00 UTC


251100Z 2512/2521 33008KT 9999 BKN020
BECMG 2517/2520 20004KT
No reported NOTAMs for that airfield.



MET'MAP, your aeronautical weather chart ! - Copyright ORBIFLY December 2007 - Disclaimer

ORBIFLY MET'MAP TEAM :

Programming & Development : Alexandra Zaïnal
Concept & Development : Baudouin d'Aumeries
Co-Development & Prog : Marc-Olivier Méhu
Technical & hardware support : Manuel Goepfert

Contact : metmap@orbifly.com




SOURCES & CREDITS :

   NOAA